This is the latest recevied weather packets stored in our database for station/object K7AZM. If no packets are shown the sender has not sent any weather packets the latest 10 day(s).
| Time | Temp. | Humidity | Pressure | Rain* | Wind** | Luminosity | Snow |
|---|---|---|---|---|---|---|---|
| 1777723823 | 20.56° C | 27% | 1013.4 hPa | 0 mm | - | - | - |
| 1777723244 | 20.56° C | 27% | 1013.4 hPa | 0 mm | - | - | - |
| 1777717823 | 20.56° C | 28% | 1013 hPa | 0 mm | - | - | - |
| 1777713623 | 22.78° C | 24% | 1013 hPa | 0 mm | - | - | - |
| 1777711223 | 24.44° C | 22% | 1012.9 hPa | 0 mm | - | - | - |
| 1777708823 | 24.44° C | 21% | 1012.6 hPa | 0 mm | - | - | - |
| 1777707023 | 21.11° C | 29% | 1012.4 hPa | 0 mm | - | - | - |
| 1777705523 | 21.67° C | 29% | 1012.4 hPa | 0 mm | - | - | - |
| 1777704024 | 21.11° C | 31% | 1011.9 hPa | 0 mm | - | - | - |
| 1777703422 | 21.11° C | 31% | 1011.8 hPa | 0 mm | - | - | - |
| 1777702544 | 21.67° C | 31% | 1011.7 hPa | 0 mm | - | - | - |
| 1777702222 | 21.67° C | 31% | 1011.7 hPa | 0 mm | - | - | - |
| 1777701924 | 21.67° C | 31% | 1011.6 hPa | 0 mm | - | - | - |
| 1777701624 | 22.22° C | 30% | 1011.4 hPa | 0 mm | - | - | - |
| 1777698923 | 24.44° C | 26% | 1011.4 hPa | 0 mm | - | - | - |
| 1777698623 | 24.44° C | 26% | 1011.4 hPa | 0 mm | - | - | - |
| 1777698343 | 24.44° C | 26% | 1011.3 hPa | 0 mm | - | - | - |
| 1777697723 | 24.44° C | 26% | 1011.2 hPa | 0 mm | - | - | - |
| 1777696244 | 24.44° C | 26% | 1011 hPa | 0 mm | - | - | - |
| 1777695964 | 24.44° C | 25% | 1011 hPa | 0 mm | - | - | - |
| 1777693823 | 24.44° C | 25% | 1010.6 hPa | 0 mm | - | - | - |
| 1777693523 | 25° C | 24% | 1010.6 hPa | 0 mm | - | - | - |
| 1777692023 | 26.67° C | 21% | 1010.3 hPa | 0 mm | - | - | - |
| 1777689323 | 27.78° C | 19% | 1009.8 hPa | 0 mm | - | - | - |
| 1777687224 | 29.44° C | 16% | 1009.2 hPa | 0 mm | - | - | - |
* Rain latest hour (hover to see other rain measurements)
** Current wind speed in m/s (hover to see current wind gust speed)